Time;durP1;ratioP1;P1;durP2;ratioP2;P2;SDS_P1;SDS_P2;PMS_P1;PMS_P2;Temp;Humidity;BMP_temperature;BMP_pressure;BME280_temperature;BME280_humidity;BME280_pressure;Samples;Min_cycle;Max_cycle;Signal;HPM_P1;HPM_P2
2024/01/19 00:00:18;;;;;;;89.13;37.27;;;-1.20;99.90;;;;;;5053219;28;20222;-79
2024/01/19 00:03:06;;;;;;;83.70;36.80;;;-1.20;99.90;;;;;;5038792;28;20269;-79
2024/01/19 00:05:53;;;;;;;89.88;38.28;;;-1.10;99.90;;;;;;5016742;28;1077363;-79
2024/01/19 00:08:41;;;;;;;86.67;37.50;;;-1.10;99.90;;;;;;5053879;28;20276;-80
2024/01/19 00:11:28;;;;;;;87.30;36.57;;;-1.10;99.90;;;;;;5053806;28;20266;-80
2024/01/19 00:14:15;;;;;;;83.87;35.90;;;-1.30;99.90;;;;;;5054041;28;20219;-79
2024/01/19 00:17:03;;;;;;;81.37;35.23;;;-1.20;99.90;;;;;;5055114;28;20781;-80
2024/01/19 00:19:51;;;;;;;97.50;38.30;;;-1.20;99.90;;;;;;5040764;28;20200;-79
2024/01/19 00:22:41;;;;;;;90.47;37.17;;;-1.20;99.90;;;;;;5054985;28;20218;-79
2024/01/19 00:25:28;;;;;;;85.40;36.30;;;-1.20;99.90;;;;;;5053318;28;20273;-79
2024/01/19 00:28:16;;;;;;;93.60;37.73;;;-1.20;99.90;;;;;;5040417;28;20199;-79
2024/01/19 00:31:04;;;;;;;80.10;35.73;;;-1.30;99.90;;;;;;5053187;28;20191;-79
2024/01/19 00:33:52;;;;;;;89.50;35.40;;;-1.30;99.90;;;;;;5053336;28;20314;-79
2024/01/19 00:36:40;;;;;;;94.97;38.63;;;-1.40;99.90;;;;;;5039552;28;20254;-78
2024/01/19 00:39:27;;;;;;;82.80;34.73;;;-1.30;99.90;;;;;;5039399;28;20202;-79
2024/01/19 00:42:15;;;;;;;90.67;35.80;;;-1.30;99.90;;;;;;5053143;28;20216;-79
2024/01/19 00:45:02;;;;;;;82.30;35.70;;;-1.40;99.90;;;;;;5052618;28;20319;-79
2024/01/19 00:47:50;;;;;;;80.53;33.83;;;-1.50;99.90;;;;;;5038757;28;20274;-80
2024/01/19 00:50:37;;;;;;;84.73;32.10;;;-1.50;99.90;;;;;;5053036;28;20258;-79
2024/01/19 00:53:24;;;;;;;70.00;31.07;;;-1.60;99.90;;;;;;5051161;28;20204;-79
2024/01/19 00:56:13;;;;;;;73.43;30.83;;;-1.60;99.90;;;;;;5052765;28;20586;-79
2024/01/19 00:59:00;;;;;;;67.17;29.70;;;-1.60;99.90;;;;;;5052873;28;20273;-79
2024/01/19 01:01:48;;;;;;;74.83;30.67;;;-1.60;99.90;;;;;;5044340;28;20284;-79
2024/01/19 01:04:35;;;;;;;75.80;31.37;;;-1.70;99.90;;;;;;5051561;28;20274;-79
2024/01/19 01:07:23;;;;;;;74.90;30.60;;;-1.60;99.90;;;;;;5052730;28;20196;-79
2024/01/19 01:10:10;;;;;;;71.03;30.73;;;-1.70;99.90;;;;;;5052253;28;20187;-79
2024/01/19 01:13:01;;;;;;;74.67;31.07;;;-1.80;99.90;;;;;;5052760;28;20216;-79
2024/01/19 01:15:49;;;;;;;70.10;29.43;;;-1.70;99.90;;;;;;5037776;28;20588;-79
2024/01/19 01:18:36;;;;;;;62.80;27.87;;;-1.60;99.90;;;;;;5052713;28;20608;-79
2024/01/19 01:21:25;;;;;;;62.50;27.17;;;-1.70;99.90;;;;;;5052595;28;20245;-79
2024/01/19 01:24:12;;;;;;;64.10;27.57;;;-1.90;99.90;;;;;;5052135;28;20194;-79
2024/01/19 01:27:00;;;;;;;60.63;26.50;;;-1.90;99.90;;;;;;5045409;28;20230;-79
2024/01/19 01:29:47;;;;;;;58.50;25.33;;;-1.90;99.90;;;;;;5052210;28;20557;-80
2024/01/19 01:32:34;;;;;;;61.37;25.73;;;-1.80;99.90;;;;;;5051919;28;20195;-79
2024/01/19 01:35:22;;;;;;;57.43;25.00;;;-1.70;99.90;;;;;;5052827;28;20619;-79
2024/01/19 01:38:10;;;;;;;58.07;23.87;;;-1.70;99.90;;;;;;5052462;28;20205;-78
2024/01/19 01:40:57;;;;;;;56.87;23.17;;;-1.70;99.90;;;;;;5038587;28;20328;-79
2024/01/19 01:43:45;;;;;;;50.30;19.73;;;-1.80;99.90;;;;;;5051237;28;20208;-79
2024/01/19 01:46:32;;;;;;;48.77;21.27;;;-1.90;99.90;;;;;;5051884;28;20218;-79
2024/01/19 01:49:19;;;;;;;48.17;20.60;;;-1.90;99.90;;;;;;5052165;28;20278;-79
2024/01/19 01:52:08;;;;;;;44.83;19.77;;;-1.90;99.90;;;;;;5038063;28;20267;-79
2024/01/19 01:54:55;;;;;;;55.57;20.87;;;-2.00;99.90;;;;;;5051581;28;20199;-79
2024/01/19 01:57:43;;;;;;;52.20;21.87;;;-1.90;99.90;;;;;;5052106;28;20222;-79
2024/01/19 02:00:32;;;;;;;63.20;23.80;;;-1.90;99.90;;;;;;5036544;28;20270;-79
2024/01/19 02:03:20;;;;;;;58.07;22.90;;;-1.80;99.90;;;;;;5051086;28;20716;-79
2024/01/19 02:06:07;;;;;;;61.53;24.33;;;-1.80;99.90;;;;;;5051965;28;20226;-79
2024/01/19 02:08:55;;;;;;;54.43;20.87;;;-1.80;99.90;;;;;;5052073;28;20241;-79
2024/01/19 02:11:44;;;;;;;57.23;22.80;;;-1.90;99.90;;;;;;5052280;28;20218;-79
2024/01/19 02:14:31;;;;;;;55.30;22.03;;;-1.90;99.90;;;;;;5052529;28;20289;-79
2024/01/19 02:17:18;;;;;;;54.20;22.07;;;-2.00;99.90;;;;;;5037721;28;20203;-80
2024/01/19 02:20:07;;;;;;;52.37;23.03;;;-1.90;99.90;;;;;;5052068;28;20191;-80
2024/01/19 02:22:55;;;;;;;53.87;22.57;;;-1.90;99.90;;;;;;5037072;28;20198;-80
2024/01/19 02:25:45;;;;;;;56.30;22.03;;;-1.90;99.90;;;;;;5037406;28;20249;-79
2024/01/19 02:28:33;;;;;;;54.57;21.73;;;-2.00;99.90;;;;;;5051919;28;20565;-79
2024/01/19 02:31:20;;;;;;;51.43;21.43;;;-1.90;99.90;;;;;;5051949;28;20192;-79
2024/01/19 02:34:08;;;;;;;51.97;20.50;;;-2.10;99.90;;;;;;5051390;28;20652;-80
2024/01/19 02:36:55;;;;;;;47.07;21.00;;;-2.20;99.90;;;;;;5036340;28;20199;-80
2024/01/19 02:39:43;;;;;;;52.00;21.53;;;-2.30;99.90;;;;;;5051233;28;20277;-80
2024/01/19 02:42:31;;;;;;;57.60;24.27;;;-2.20;99.90;;;;;;5023291;28;20215;-79
2024/01/19 02:45:18;;;;;;;74.63;28.00;;;-2.20;99.90;;;;;;5037495;28;20204;-80
2024/01/19 02:48:06;;;;;;;71.47;27.50;;;-2.20;99.90;;;;;;5051775;28;20766;-79
2024/01/19 02:50:54;;;;;;;71.07;28.17;;;-2.20;99.90;;;;;;5059121;28;20196;-79
2024/01/19 02:53:41;;;;;;;74.80;28.37;;;-2.10;99.90;;;;;;5052789;28;20197;-80
2024/01/19 02:56:28;;;;;;;78.00;28.83;;;-2.10;99.90;;;;;;5066278;28;20219;-80
2024/01/19 02:59:16;;;;;;;72.13;27.93;;;-2.10;99.90;;;;;;5069914;28;20200;-80
2024/01/19 03:02:03;;;;;;;73.00;27.97;;;-2.20;99.90;;;;;;5061895;28;20777;-80
2024/01/19 03:04:51;;;;;;;73.97;26.40;;;-2.20;99.90;;;;;;5055537;28;20539;-80
2024/01/19 03:07:38;;;;;;;72.50;26.37;;;-2.20;99.90;;;;;;5040671;28;20214;-79
2024/01/19 03:10:25;;;;;;;71.00;26.73;;;-2.40;99.90;;;;;;5040540;28;20199;-80
2024/01/19 03:13:13;;;;;;;76.77;26.53;;;-2.40;99.90;;;;;;5054522;28;20195;-79
2024/01/19 03:16:04;;;;;;;70.83;26.57;;;-2.50;99.90;;;;;;5053698;28;20740;-79
2024/01/19 03:18:55;;;;;;;70.07;26.00;;;-2.50;99.90;;;;;;5054287;28;20279;-79
2024/01/19 03:21:42;;;;;;;77.93;26.87;;;-2.50;99.90;;;;;;5039269;28;20195;-79
2024/01/19 03:24:29;;;;;;;76.67;25.03;;;-2.60;99.90;;;;;;5040359;28;20190;-79
2024/01/19 03:27:17;;;;;;;78.10;26.33;;;-2.70;99.90;;;;;;5053973;28;20337;-79
2024/01/19 03:30:05;;;;;;;78.23;27.13;;;-2.70;99.90;;;;;;5040286;28;20192;-79
2024/01/19 03:32:52;;;;;;;85.77;26.07;;;-2.90;99.90;;;;;;5054001;28;20195;-79
2024/01/19 03:35:40;;;;;;;80.13;25.63;;;-2.90;99.90;;;;;;5054250;28;20276;-79
2024/01/19 03:38:28;;;;;;;77.97;24.87;;;-2.90;99.90;;;;;;5054545;28;20553;-79
2024/01/19 03:41:16;;;;;;;66.40;24.80;;;-3.00;99.90;;;;;;5040026;28;20754;-79
2024/01/19 03:44:03;;;;;;;63.30;23.20;;;-3.10;99.90;;;;;;5053221;28;20549;-80
2024/01/19 03:46:51;;;;;;;71.77;22.80;;;-3.00;99.90;;;;;;5054209;28;20268;-79
2024/01/19 03:49:39;;;;;;;66.70;22.57;;;-3.10;99.90;;;;;;5053728;28;20201;-79
2024/01/19 03:52:26;;;;;;;61.17;21.43;;;-3.10;99.90;;;;;;5053626;28;20195;-79
2024/01/19 03:55:16;;;;;;;67.23;21.83;;;-3.10;99.90;;;;;;5054260;28;20194;-79
2024/01/19 03:58:05;;;;;;;63.33;20.70;;;-3.20;99.90;;;;;;5040019;28;20215;-79
2024/01/19 04:00:53;;;;;;;65.33;22.43;;;-3.20;99.90;;;;;;5053395;28;20234;-79
2024/01/19 04:03:40;;;;;;;60.20;21.40;;;-3.20;99.90;;;;;;5053146;28;20671;-79
2024/01/19 04:06:27;;;;;;;55.13;18.77;;;-3.30;99.90;;;;;;5053111;28;20215;-79
2024/01/19 04:09:16;;;;;;;53.17;19.30;;;-3.30;99.90;;;;;;5037961;28;20615;-80
2024/01/19 04:12:14;;;;;;;50.30;17.60;;;-3.50;99.90;;;;;;5053228;28;20221;-79
2024/01/19 04:15:02;;;;;;;49.57;17.33;;;-3.50;99.90;;;;;;5038481;28;20342;-80
2024/01/19 04:17:50;;;;;;;41.73;14.60;;;-3.50;99.90;;;;;;5053194;28;20679;-79
2024/01/19 04:20:37;;;;;;;44.30;15.30;;;-3.50;99.90;;;;;;5052981;28;20207;-79
2024/01/19 04:23:24;;;;;;;40.67;15.43;;;-3.60;99.90;;;;;;5052974;28;20779;-80
2024/01/19 04:26:12;;;;;;;36.80;15.17;;;-3.60;99.90;;;;;;5052774;28;20306;-80
2024/01/19 04:28:59;;;;;;;38.07;15.20;;;-3.50;99.90;;;;;;5038199;28;20231;-80
2024/01/19 04:31:47;;;;;;;38.03;14.13;;;-3.60;99.90;;;;;;5052909;28;20277;-79
2024/01/19 04:34:34;;;;;;;39.13;15.33;;;-3.60;99.90;;;;;;5052161;28;20192;-79
2024/01/19 04:37:22;;;;;;;36.83;13.93;;;-3.60;99.90;;;;;;5037942;28;20197;-80
2024/01/19 04:40:09;;;;;;;41.70;14.27;;;-3.50;99.90;;;;;;5052519;28;20195;-79
2024/01/19 04:42:57;;;;;;;37.47;13.77;;;-3.40;99.90;;;;;;5052662;28;20222;-79
2024/01/19 04:45:45;;;;;;;34.67;13.63;;;-3.40;99.90;;;;;;5052462;28;20195;-79
2024/01/19 04:48:32;;;;;;;37.57;14.07;;;-3.30;99.90;;;;;;5052449;28;20282;-80
2024/01/19 04:51:20;;;;;;;37.93;15.97;;;-3.20;99.90;;;;;;5038225;28;20666;-79
2024/01/19 04:54:07;;;;;;;36.13;13.80;;;-3.30;99.90;;;;;;5052235;28;20202;-79
2024/01/19 04:56:55;;;;;;;36.63;14.43;;;-3.30;99.90;;;;;;5052245;28;20252;-79
2024/01/19 04:59:42;;;;;;;29.37;12.60;;;-3.20;99.90;;;;;;5052291;28;20606;-80
2024/01/19 05:02:32;;;;;;;33.03;12.90;;;-3.10;99.90;;;;;;5052216;28;20195;-79
2024/01/19 05:05:20;;;;;;;29.17;12.30;;;-3.30;99.90;;;;;;5052059;28;20234;-79
2024/01/19 05:08:07;;;;;;;31.60;12.63;;;-3.40;99.90;;;;;;5050867;28;20596;-79
2024/01/19 05:10:54;;;;;;;29.87;11.37;;;-3.40;99.90;;;;;;5037818;28;20218;-79
2024/01/19 05:13:43;;;;;;;28.93;11.00;;;-3.50;99.90;;;;;;5037699;28;20202;-79
2024/01/19 05:16:30;;;;;;;31.20;12.03;;;-3.60;99.90;;;;;;5037967;28;20203;-79
2024/01/19 05:19:18;;;;;;;31.70;11.70;;;-3.50;99.90;;;;;;5052286;28;20202;-79
2024/01/19 05:22:06;;;;;;;33.57;11.90;;;-3.60;99.90;;;;;;5037081;28;20197;-79
2024/01/19 05:24:54;;;;;;;29.87;11.27;;;-3.50;99.90;;;;;;5037115;28;20249;-80
2024/01/19 05:27:41;;;;;;;34.37;13.20;;;-3.50;99.90;;;;;;5038110;28;20228;-79
2024/01/19 05:30:28;;;;;;;32.93;12.40;;;-3.60;99.90;;;;;;5051736;28;20198;-79
2024/01/19 05:33:16;;;;;;;36.00;12.57;;;-3.50;99.90;;;;;;5051538;28;20195;-80
2024/01/19 05:36:04;;;;;;;38.20;13.03;;;-3.50;99.90;;;;;;5051548;28;20669;-79
2024/01/19 05:38:51;;;;;;;32.37;13.43;;;-3.50;99.90;;;;;;5052208;28;20191;-80
2024/01/19 05:41:38;;;;;;;34.77;12.97;;;-3.40;99.90;;;;;;5051694;28;20228;-79
2024/01/19 05:44:26;;;;;;;37.30;13.17;;;-3.40;99.90;;;;;;5051645;28;20199;-79
2024/01/19 05:47:13;;;;;;;34.13;13.87;;;-3.30;99.90;;;;;;5051368;28;20221;-79
2024/01/19 05:50:01;;;;;;;38.83;14.03;;;-3.30;99.90;;;;;;5051457;28;20203;-79
2024/01/19 05:52:48;;;;;;;33.23;13.67;;;-3.30;99.90;;;;;;5051300;28;20198;-79
2024/01/19 05:55:35;;;;;;;40.70;15.07;;;-3.30;99.90;;;;;;5051436;28;20287;-79
2024/01/19 05:58:23;;;;;;;41.57;14.90;;;-3.30;99.90;;;;;;5051788;28;20196;-79
2024/01/19 06:01:10;;;;;;;45.57;16.90;;;-3.30;99.90;;;;;;5050681;28;20334;-79
2024/01/19 06:03:58;;;;;;;40.83;15.40;;;-3.30;99.90;;;;;;5037007;28;20211;-79
2024/01/19 06:06:46;;;;;;;42.30;15.80;;;-3.20;99.90;;;;;;5050777;28;20710;-79
2024/01/19 06:09:33;;;;;;;36.20;14.67;;;-3.10;99.90;;;;;;5051512;28;20193;-79
2024/01/19 06:12:20;;;;;;;40.73;14.50;;;-3.00;99.90;;;;;;5050739;28;20236;-79
2024/01/19 06:15:08;;;;;;;38.20;13.63;;;-3.00;99.90;;;;;;5051430;28;20248;-79
2024/01/19 06:17:55;;;;;;;29.10;11.53;;;-3.00;99.90;;;;;;5051220;28;20442;-79
2024/01/19 06:20:43;;;;;;;31.37;12.37;;;-3.20;99.90;;;;;;5051302;28;20227;-79
2024/01/19 06:23:30;;;;;;;29.00;12.03;;;-3.20;99.90;;;;;;5050571;28;20239;-80
2024/01/19 06:26:18;;;;;;;29.40;12.30;;;-3.20;99.90;;;;;;5051901;28;20239;-79
2024/01/19 06:29:05;;;;;;;28.33;12.23;;;-3.30;99.90;;;;;;5051222;28;20198;-79
2024/01/19 06:31:52;;;;;;;30.67;11.83;;;-3.30;99.90;;;;;;5051541;28;20201;-79
2024/01/19 06:34:41;;;;;;;27.33;12.00;;;-3.30;99.90;;;;;;5054706;28;20202;-79
2024/01/19 06:37:29;;;;;;;30.70;11.60;;;-3.30;99.90;;;;;;5054208;28;20205;-79
2024/01/19 06:40:16;;;;;;;28.33;11.63;;;-3.20;99.90;;;;;;5055080;28;20253;-79
2024/01/19 06:43:04;;;;;;;28.20;12.27;;;-3.20;99.90;;;;;;5054712;28;20214;-79
2024/01/19 06:45:52;;;;;;;28.63;11.83;;;-3.30;99.90;;;;;;5055209;28;20727;-78
2024/01/19 06:48:40;;;;;;;24.93;10.50;;;-3.20;99.90;;;;;;5054954;28;20245;-79
2024/01/19 06:51:28;;;;;;;25.50;10.87;;;-3.30;99.90;;;;;;5054455;28;20285;-79
2024/01/19 06:54:16;;;;;;;21.83;10.57;;;-3.30;99.90;;;;;;5054401;28;20202;-79
2024/01/19 06:57:04;;;;;;;24.83;10.47;;;-3.30;99.90;;;;;;5053784;28;20305;-79
2024/01/19 06:59:51;;;;;;;25.67;11.00;;;-3.40;99.90;;;;;;5054726;28;20271;-79
2024/01/19 07:02:38;;;;;;;21.40;10.20;;;-3.30;99.90;;;;;;5054474;28;20617;-78
2024/01/19 07:05:26;;;;;;;26.60;10.40;;;-3.40;99.90;;;;;;5054138;28;20320;-80
2024/01/19 07:08:15;;;;;;;23.20;9.90;;;-3.50;99.90;;;;;;5053760;28;20224;-80
2024/01/19 07:11:03;;;;;;;20.87;9.83;;;-3.40;99.90;;;;;;5040545;28;20192;-81
2024/01/19 07:13:50;;;;;;;23.63;10.97;;;-3.40;99.90;;;;;;5042564;28;20198;-79
2024/01/19 07:16:43;;;;;;;27.23;10.60;;;-3.40;99.90;;;;;;5053905;28;20191;-80
2024/01/19 07:19:31;;;;;;;24.97;10.30;;;-3.40;99.90;;;;;;5054295;28;20191;-79
2024/01/19 07:22:18;;;;;;;21.53;9.40;;;-3.40;99.90;;;;;;5053984;28;20647;-79
2024/01/19 07:25:06;;;;;;;23.03;9.70;;;-3.50;99.90;;;;;;5040589;28;20360;-79
2024/01/19 07:27:53;;;;;;;22.60;9.80;;;-3.50;99.90;;;;;;5053913;28;20223;-78
2024/01/19 07:30:40;;;;;;;22.10;9.80;;;-3.40;99.90;;;;;;5054574;28;20253;-80
2024/01/19 07:33:28;;;;;;;23.73;10.00;;;-3.50;99.90;;;;;;5054940;28;20695;-79
2024/01/19 07:36:19;;;;;;;27.17;10.87;;;-3.40;99.90;;;;;;5053814;28;20282;-79
2024/01/19 07:39:07;;;;;;;26.73;10.17;;;-3.40;99.90;;;;;;5053527;28;20201;-79
2024/01/19 07:41:54;;;;;;;22.60;10.33;;;-3.40;99.90;;;;;;5038870;28;20701;-80
2024/01/19 07:44:42;;;;;;;25.77;9.90;;;-3.30;99.90;;;;;;5053080;28;20207;-79
2024/01/19 07:47:32;;;;;;;26.50;10.93;;;-3.20;99.90;;;;;;5040512;28;20215;-80
2024/01/19 07:50:19;;;;;;;25.53;10.67;;;-3.20;99.90;;;;;;5038812;28;20191;-80
2024/01/19 07:53:07;;;;;;;25.70;10.93;;;-3.20;99.90;;;;;;5039637;28;20602;-80
2024/01/19 07:55:54;;;;;;;26.93;11.10;;;-3.10;99.90;;;;;;5039051;28;20229;-80
2024/01/19 07:58:45;;;;;;;29.70;11.50;;;-3.20;99.90;;;;;;5053816;28;20196;-80
2024/01/19 08:01:32;;;;;;;23.57;10.53;;;-3.20;99.90;;;;;;5053116;28;20254;-79
2024/01/19 08:04:19;;;;;;;24.87;11.00;;;-3.20;99.90;;;;;;5052510;28;20597;-79
2024/01/19 08:07:07;;;;;;;25.40;11.43;;;-3.10;99.90;;;;;;5053473;28;20219;-79
2024/01/19 08:09:54;;;;;;;23.73;11.00;;;-3.00;99.90;;;;;;5053524;28;20237;-79
2024/01/19 08:12:42;;;;;;;26.03;11.17;;;-2.90;99.90;;;;;;5053330;28;20297;-79
2024/01/19 08:15:29;;;;;;;24.30;10.53;;;-3.00;99.90;;;;;;5038939;28;20199;-79
2024/01/19 08:18:17;;;;;;;25.97;11.10;;;-3.00;99.90;;;;;;5053033;28;20583;-79
2024/01/19 08:21:05;;;;;;;27.70;10.80;;;-2.90;99.90;;;;;;5053082;28;20647;-79
2024/01/19 08:23:52;;;;;;;24.90;11.03;;;-3.00;99.90;;;;;;5052965;28;20195;-79
2024/01/19 08:26:40;;;;;;;25.37;11.67;;;-2.90;99.90;;;;;;5038600;28;20219;-79
2024/01/19 08:29:28;;;;;;;27.40;11.97;;;-2.80;99.90;;;;;;5039023;28;20674;-79
2024/01/19 08:32:15;;;;;;;28.77;11.77;;;-2.80;99.90;;;;;;5038873;28;20195;-79
2024/01/19 08:35:09;;;;;;;27.47;11.90;;;-2.80;99.90;;;;;;5052678;28;20198;-79
2024/01/19 08:37:56;;;;;;;27.10;10.97;;;-2.80;99.90;;;;;;5051402;28;20575;-79
2024/01/19 08:40:43;;;;;;;24.47;11.10;;;-2.60;99.90;;;;;;5038413;28;20189;-79
2024/01/19 08:43:31;;;;;;;25.23;11.50;;;-2.60;99.90;;;;;;5051984;28;20199;-79
2024/01/19 08:46:18;;;;;;;30.93;12.60;;;-2.60;99.90;;;;;;5052443;28;20205;-80
2024/01/19 08:49:05;;;;;;;26.17;11.77;;;-2.60;99.90;;;;;;5051719;28;20241;-79
2024/01/19 08:51:53;;;;;;;26.83;11.70;;;-2.50;99.90;;;;;;5052395;28;20201;-80
2024/01/19 08:54:40;;;;;;;26.10;10.97;;;-2.50;99.90;;;;;;5051665;28;20725;-79
2024/01/19 08:57:27;;;;;;;26.87;11.00;;;-2.50;99.90;;;;;;5052120;28;20281;-80
2024/01/19 09:00:15;;;;;;;30.03;11.67;;;-2.40;99.90;;;;;;5052586;28;20198;-80
2024/01/19 09:03:03;;;;;;;28.20;12.03;;;-2.40;99.90;;;;;;5052370;28;20208;-79
2024/01/19 09:05:52;;;;;;;25.50;11.33;;;-2.50;99.90;;;;;;5051068;28;20281;-79
2024/01/19 09:08:42;;;;;;;24.43;11.33;;;-2.60;99.90;;;;;;5051875;28;20222;-79
2024/01/19 09:11:34;;;;;;;29.70;11.77;;;-2.60;99.90;;;;;;5037207;28;20223;-79
2024/01/19 09:14:22;;;;;;;28.20;11.13;;;-2.60;99.90;;;;;;5051872;28;20239;-79
2024/01/19 09:17:09;;;;;;;26.50;11.77;;;-2.70;99.90;;;;;;5051980;28;20205;-79
2024/01/19 09:19:57;;;;;;;27.17;12.47;;;-2.70;99.90;;;;;;5052143;28;20683;-79
2024/01/19 09:22:44;;;;;;;24.87;11.57;;;-2.70;99.90;;;;;;5051822;28;20219;-79
2024/01/19 09:25:31;;;;;;;26.63;11.80;;;-2.70;99.90;;;;;;5051702;28;20198;-79
2024/01/19 09:28:19;;;;;;;29.23;12.37;;;-2.60;99.90;;;;;;5051742;28;20305;-80
2024/01/19 09:31:06;;;;;;;28.10;12.07;;;-2.50;99.90;;;;;;5051684;28;20194;-79
2024/01/19 09:33:53;;;;;;;29.20;12.20;;;-2.50;99.90;;;;;;5050964;28;20252;-80
2024/01/19 09:36:41;;;;;;;28.37;12.13;;;-2.40;99.90;;;;;;5051865;28;20201;-79
2024/01/19 09:39:28;;;;;;;33.00;12.63;;;-2.40;99.90;;;;;;5051761;28;20229;-79
2024/01/19 09:42:34;;;;;;;30.00;12.80;;;-2.40;99.90;;;;;;5051754;28;20318;-79
2024/01/19 09:45:25;;;;;;;28.17;12.30;;;-2.40;99.90;;;;;;5051574;28;20187;-79
2024/01/19 09:48:23;;;;;;;29.87;12.30;;;-2.20;99.90;;;;;;5037955;28;20303;-79
2024/01/19 09:51:11;;;;;;;31.93;13.47;;;-2.20;99.90;;;;;;5051830;28;20193;-80
2024/01/19 09:54:03;;;;;;;31.27;12.57;;;-2.10;99.90;;;;;;5052418;28;20248;-80
2024/01/19 09:56:51;;;;;;;27.00;12.63;;;-2.10;99.90;;;;;;5051328;28;20554;-79
2024/01/19 09:59:39;;;;;;;29.53;12.63;;;-2.00;99.90;;;;;;5024164;28;20194;-79
2024/01/19 10:02:28;;;;;;;29.93;13.70;;;-1.90;99.90;;;;;;5051756;28;20191;-80
2024/01/19 10:05:17;;;;;;;29.80;12.97;;;-2.00;99.90;;;;;;5051395;28;20829;-80
2024/01/19 10:08:05;;;;;;;31.23;12.77;;;-1.90;99.90;;;;;;5041326;28;20215;-80
2024/01/19 10:10:56;;;;;;;28.73;12.80;;;-1.80;99.90;;;;;;5055524;28;20195;-79
2024/01/19 10:13:45;;;;;;;28.50;12.10;;;-1.60;99.90;;;;;;5055586;28;20281;-79
2024/01/19 10:16:34;;;;;;;27.10;12.13;;;-1.60;99.90;;;;;;5054903;28;20274;-80
2024/01/19 10:19:21;;;;;;;29.93;12.30;;;-1.50;99.90;;;;;;5055268;28;20367;-79
2024/01/19 10:22:24;;;;;;;28.17;12.00;;;-1.50;99.90;;;;;;5040574;28;20683;-80
2024/01/19 10:25:14;;;;;;;33.03;13.20;;;-1.50;99.90;;;;;;5056452;28;20194;-79
2024/01/19 10:28:02;;;;;;;28.40;13.00;;;-1.40;99.90;;;;;;5055470;28;20304;-80
2024/01/19 10:30:49;;;;;;;28.03;12.13;;;-1.40;99.90;;;;;;5040896;28;20201;-80
2024/01/19 10:33:37;;;;;;;30.40;12.67;;;-1.30;99.90;;;;;;5041003;28;20574;-79
2024/01/19 10:36:26;;;;;;;29.20;12.70;;;-1.30;99.90;;;;;;5054557;28;20288;-80
2024/01/19 10:39:23;;;;;;;32.07;13.43;;;-1.10;99.90;;;;;;5054431;28;20210;-80
2024/01/19 10:42:11;;;;;;;29.20;12.60;;;-1.20;99.90;;;;;;5055425;28;20247;-80
2024/01/19 10:45:14;;;;;;;30.00;12.97;;;-1.10;99.90;;;;;;5055410;28;20612;-81
2024/01/19 10:48:03;;;;;;;30.33;13.17;;;-1.00;99.90;;;;;;5040711;28;20307;-81
2024/01/19 10:51:01;;;;;;;31.67;12.87;;;-1.00;99.90;;;;;;5054232;28;20280;-79
2024/01/19 10:53:49;;;;;;;35.03;13.13;;;-0.90;99.90;;;;;;5040482;28;20204;-79
2024/01/19 10:56:38;;;;;;;27.17;12.80;;;-0.90;99.90;;;;;;5040526;28;20212;-79
2024/01/19 10:59:26;;;;;;;30.77;13.07;;;-0.80;99.90;;;;;;5053643;28;20197;-80
2024/01/19 11:02:14;;;;;;;30.50;13.13;;;-0.70;99.90;;;;;;5054489;28;20193;-81
2024/01/19 11:05:02;;;;;;;28.57;12.90;;;-0.60;99.90;;;;;;5054494;28;20228;-80
2024/01/19 11:07:54;;;;;;;30.10;12.83;;;-0.50;99.90;;;;;;5054624;28;20221;-80
2024/01/19 11:10:47;;;;;;;29.13;12.43;;;-0.50;99.90;;;;;;5053817;28;20688;-80
2024/01/19 11:13:40;;;;;;;30.53;13.23;;;-0.50;99.90;;;;;;5054196;28;20237;-80
2024/01/19 11:16:31;;;;;;;31.93;12.83;;;-0.40;99.90;;;;;;5053512;28;20194;-79
2024/01/19 11:19:20;;;;;;;26.63;12.73;;;-0.20;99.90;;;;;;5053038;28;20659;-80
2024/01/19 11:22:08;;;;;;;29.20;12.50;;;-0.30;99.90;;;;;;5054477;28;20198;-80
2024/01/19 11:25:03;;;;;;;33.03;13.27;;;-0.20;99.90;;;;;;5054206;28;20666;-80
2024/01/19 11:28:01;;;;;;;31.70;13.17;;;-0.30;99.90;;;;;;5040319;28;20331;-80
2024/01/19 11:31:08;;;;;;;27.47;12.63;;;-0.20;99.90;;;;;;5039699;28;20224;-79
2024/01/19 11:33:55;;;;;;;26.77;12.47;;;0.00;99.90;;;;;;5053900;28;20316;-80
2024/01/19 11:36:47;;;;;;;28.93;12.23;;;0.00;99.90;;;;;;5053953;28;20209;-80
2024/01/19 11:39:42;;;;;;;29.50;12.13;;;0.20;99.90;;;;;;5053678;28;20653;-79
2024/01/19 11:42:41;;;;;;;27.30;12.57;;;0.30;99.90;;;;;;5053746;28;20246;-80
2024/01/19 11:45:28;;;;;;;29.93;11.50;;;0.40;99.90;;;;;;5053681;28;20671;-79
2024/01/19 11:48:52;;;;;;;26.83;11.83;;;0.40;99.90;;;;;;5053373;28;20328;-80
2024/01/19 11:51:39;;;;;;;27.87;11.90;;;0.50;99.90;;;;;;4973804;28;20288;-80
2024/01/19 11:54:28;;;;;;;28.00;11.90;;;1.10;99.90;;;;;;4973153;28;20202;-79
2024/01/19 11:57:24;;;;;;;28.10;12.60;;;1.60;99.90;;;;;;4973583;28;20359;-80
2024/01/19 12:00:13;;;;;;;27.60;11.93;;;1.90;99.90;;;;;;4973026;28;20328;-80
2024/01/19 12:03:00;;;;;;;27.43;12.07;;;2.20;99.90;;;;;;4972454;28;20205;-80
2024/01/19 12:05:49;;;;;;;27.87;11.70;;;2.50;99.90;;;;;;4973507;28;20221;-80
2024/01/19 12:08:37;;;;;;;28.27;11.40;;;3.10;99.90;;;;;;4973413;28;20601;-80
2024/01/19 12:11:25;;;;;;;25.33;11.63;;;3.40;99.90;;;;;;4972233;28;20225;-80
2024/01/19 12:14:13;;;;;;;27.13;11.17;;;3.50;99.90;;;;;;4973791;28;20205;-79
2024/01/19 12:17:01;;;;;;;25.17;11.03;;;3.60;99.90;;;;;;4973944;28;20213;-80
2024/01/19 12:19:52;;;;;;;27.37;11.60;;;3.50;99.90;;;;;;4972726;28;20213;-80
2024/01/19 12:22:41;;;;;;;23.23;11.13;;;3.00;99.90;;;;;;4972427;28;20782;-79
2024/01/19 12:25:28;;;;;;;27.97;11.73;;;2.60;99.90;;;;;;5001568;28;20213;-80
2024/01/19 12:28:16;;;;;;;25.83;10.50;;;2.40;99.90;;;;;;5052926;28;20222;-80
2024/01/19 12:31:19;;;;;;;25.07;10.20;;;2.30;99.90;;;;;;5052007;28;20239;-79
2024/01/19 12:34:11;;;;;;;24.97;9.70;;;2.20;99.90;;;;;;5052739;28;20236;-79
2024/01/19 12:36:59;;;;;;;19.27;8.97;;;1.90;99.90;;;;;;5052810;28;20240;-79
2024/01/19 12:39:46;;;;;;;23.83;9.77;;;1.80;99.90;;;;;;5053728;28;20223;-79
2024/01/19 12:42:36;;;;;;;21.07;9.47;;;1.60;99.90;;;;;;5053641;28;20225;-79
2024/01/19 12:45:24;;;;;;;21.43;9.23;;;1.40;99.90;;;;;;5039377;28;20237;-79
2024/01/19 12:48:11;;;;;;;22.97;9.47;;;1.30;99.90;;;;;;5053631;28;20301;-79
2024/01/19 12:51:12;;;;;;;19.20;9.27;;;1.30;99.90;;;;;;5040749;28;20193;-80
2024/01/19 12:54:00;;;;;;;21.40;9.40;;;1.30;99.90;;;;;;5052988;28;20228;-79
2024/01/19 12:56:48;;;;;;;25.17;10.17;;;1.30;99.90;;;;;;5053134;28;20217;-80
2024/01/19 12:59:35;;;;;;;25.87;9.93;;;1.40;99.90;;;;;;5051740;28;20203;-80
2024/01/19 13:02:23;;;;;;;20.00;10.00;;;1.30;99.90;;;;;;5053485;28;20569;-80
2024/01/19 13:05:23;;;;;;;20.80;9.90;;;1.30;99.90;;;;;;5051005;28;20681;-79
2024/01/19 13:08:12;;;;;;;21.97;10.33;;;1.40;99.90;;;;;;5052259;28;20300;-79
2024/01/19 13:11:07;;;;;;;24.37;10.40;;;1.60;99.90;;;;;;5037974;28;20204;-80
2024/01/19 13:14:00;;;;;;;22.70;10.07;;;1.90;99.90;;;;;;5052238;28;20186;-79
2024/01/19 13:16:53;;;;;;;22.63;10.17;;;2.10;99.90;;;;;;5051932;28;20187;-79
2024/01/19 13:19:44;;;;;;;23.40;10.07;;;2.30;99.90;;;;;;5052424;28;20206;-79
2024/01/19 13:22:31;;;;;;;21.70;9.23;;;2.40;99.90;;;;;;5052139;28;20205;-79
2024/01/19 13:25:18;;;;;;;25.70;10.27;;;2.10;99.90;;;;;;5053202;28;20656;-79
2024/01/19 13:28:06;;;;;;;25.93;10.23;;;2.20;99.90;;;;;;5051274;28;20232;-79
2024/01/19 13:30:55;;;;;;;24.87;10.00;;;2.30;99.90;;;;;;5037212;28;20198;-79
2024/01/19 13:33:46;;;;;;;23.37;10.43;;;2.50;99.90;;;;;;5051919;28;20198;-80
2024/01/19 13:36:34;;;;;;;23.20;10.37;;;2.60;99.90;;;;;;5051837;28;20280;-79
2024/01/19 13:39:21;;;;;;;22.53;10.20;;;2.70;99.90;;;;;;5051631;28;20198;-80
2024/01/19 13:42:08;;;;;;;24.43;9.93;;;2.60;99.90;;;;;;5051354;28;20218;-79
2024/01/19 13:44:56;;;;;;;22.10;10.57;;;2.40;99.90;;;;;;5052853;28;20209;-79
2024/01/19 13:47:43;;;;;;;23.40;10.83;;;2.20;99.90;;;;;;5052242;28;20674;-80
2024/01/19 13:50:31;;;;;;;25.03;10.90;;;2.20;99.90;;;;;;5051709;28;20754;-79
2024/01/19 13:53:19;;;;;;;28.57;11.40;;;2.40;99.90;;;;;;5051105;28;20200;-80
2024/01/19 13:56:08;;;;;;;24.97;11.37;;;2.40;99.90;;;;;;5051500;28;20670;-79
2024/01/19 13:58:56;;;;;;;26.43;11.67;;;2.50;99.90;;;;;;5051701;28;20227;-79
2024/01/19 14:01:45;;;;;;;23.33;10.87;;;2.60;99.90;;;;;;5051363;28;20325;-79
2024/01/19 14:04:32;;;;;;;26.43;11.97;;;2.20;99.90;;;;;;5050789;28;20230;-79
2024/01/19 14:07:20;;;;;;;28.17;12.53;;;2.20;99.90;;;;;;5051574;28;20677;-80
2024/01/19 14:10:07;;;;;;;28.03;12.10;;;2.10;99.90;;;;;;5052130;28;20229;-80
2024/01/19 14:12:55;;;;;;;30.20;13.00;;;2.00;99.90;;;;;;5051710;28;20215;-79
2024/01/19 14:15:50;;;;;;;31.10;12.80;;;2.00;99.90;;;;;;5050746;28;20348;-80